Latest Weather Observations for Lucinda

IDQ60801

Issued at 6:52 pm EST Wednesday 19 June 2019 (issued every 10 minutes, with the page automatically refreshed every 10 minutes)

About weather observations | Map of weather stations | Latest weather observations for QLD | Other Formats
Station Details ID: 032141 Name: LUCINDA POINT Lat: -18.52 Lon: 146.39 Height: 10.0 m
Data from the previous 72 hours. | See also: Recent months at Lucinda
Date/Time
EST
Temp
°C
App
Temp
°C
Dew
Point
°C
Rel
Hum
%
Delta-T
°C
Wind Press
QNH
hPa
Press
MSL
hPa
Rain since
9am
mm
Dir  Spd
km/h
Gust
km/h
Spd
kts
Gust
kts
19/06:30pm 21.6 20.2 12.2 55 5.3 ESE 11 19 6 10 1017.0 1017.0 0.0
19/06:00pm 21.6 19.6 11.6 53 5.6 ESE 13 20 7 11 1016.7 1016.7 0.0
19/05:30pm 21.9 19.1 11.3 51 5.9 ESE 17 22 9 12 1016.4 1016.4 0.0
19/05:00pm 22.2 19.9 11.9 52 5.8 ESE 15 22 8 12 1016.2 1016.2 0.0
19/04:30pm 22.1 19.4 11.8 52 5.8 ESE 17 22 9 12 1015.8 1015.8 0.0
19/04:00pm 22.4 20.9 11.8 51 5.9 ESE 11 19 6 10 1015.6 1015.6 0.0
19/03:30pm 22.3 20.6 12.5 53 5.6 ESE 13 20 7 11 1015.7 1015.7 0.0
19/03:00pm 22.5 20.7 12.2 52 5.8 ESE 13 20 7 11 1015.8 1015.8 0.0
19/02:30pm 22.5 20.9 12.7 54 5.6 ESE 13 20 7 11 1015.8 1015.8 0.0
19/02:00pm 22.5 21.5 12.2 52 5.8 SSE 9 15 5 8 1016.2 1016.2 0.0
19/01:30pm 22.5 21.7 13.0 55 5.4 SSE 9 17 5 9 1016.5 1016.5 0.0
19/01:00pm 21.5 20.0 13.2 59 4.7 S 13 17 7 9 1016.9 1016.9 0.0
19/12:30pm 21.2 19.2 13.9 63 4.2 S 17 22 9 12 1017.5 1017.5 0.0
19/12:00pm 21.1 18.7 13.8 63 4.2 S 19 26 10 14 1017.9 1017.9 0.0
19/11:30am 21.0 18.2 13.2 61 4.5 S 20 24 11 13 1018.3 1018.3 0.0
19/11:00am 20.9 18.1 14.3 66 3.8 S 22 30 12 16 1018.7 1018.7 0.0
19/10:30am 20.7 18.5 14.8 69 3.5 S 20 30 11 16 1018.9 1018.9 0.0
19/10:00am 20.6 17.7 16.0 75 2.7 S 26 32 14 17 1019.0 1019.0 0.0
19/09:30am 20.7 18.9 16.1 75 2.8 S 20 28 11 15 1018.8 1018.8 0.0
19/09:00am 20.7 19.5 16.1 75 2.8 S 17 24 9 13 1018.6 1018.6 0.0
19/08:30am 20.5 19.5 16.5 78 2.4 S 17 26 9 14 1018.2 1018.2 0.0
19/08:00am 20.6 17.8 17.2 81 2.1 S 28 32 15 17 1018.1 1018.1 0.0
19/07:30am 20.6 19.4 17.6 83 1.8 S 20 32 11 17 1017.8 1017.8 0.0
19/07:00am 20.6 19.6 18.0 85 1.6 S 20 28 11 15 1017.5 1017.5 0.0
19/06:30am 19.8 19.3 18.6 93 0.7 SSW 19 30 10 16 1017.1 1017.1 0.0
19/06:00am 19.3 18.4 18.3 94 0.6 SW 20 24 11 13 1016.9 1016.9 0.0
19/05:30am 19.3 18.1 17.4 89 1.2 SW 20 22 11 12 1016.7 1016.7 0.0
19/05:00am 19.4 18.3 17.7 90 1.0 SW 20 20 11 11 1016.5 1016.5 0.0
19/04:30am 19.7 18.5 17.5 87 1.3 SSW 20 26 11 14 1016.4 1016.4 0.0
19/04:00am 19.6 18.6 17.9 90 1.0 SW 20 24 11 13 1016.3 1016.3 0.0
19/03:30am 19.8 19.2 18.5 92 0.8 SW 19 20 10 11 1016.2 1016.2 0.0
19/03:00am 19.6 19.1 18.6 94 0.6 SW 19 22 10 12 1016.2 1016.2 0.0
19/02:30am 20.2 - - - - SW 17 20 9 11 1016.3 1016.3 0.0
19/02:00am 19.4 - - - - SW 19 22 10 12 1016.6 1016.6 0.0
19/01:30am 19.4 - - - - SW 19 20 10 11 1016.7 1016.7 0.0
19/01:00am 19.7 19.5 19.4 98 0.2 WSW 19 20 10 11 1016.9 1016.9 0.0
19/12:30am 20.9 21.4 19.2 90 1.1 SSW 15 19 8 10 1017.2 1017.2 0.0
19/12:00am 21.0 22.2 20.7 98 0.2 SSW 15 17 8 9 1017.4 1017.4 0.0
 
Date/Time
EST
Temp
°C
App
Temp
°C
Dew
Point
°C
Rel
Hum
%
Delta-T
°C
Wind Press
QNH
hPa
Press
MSL
hPa
Rain since
9am
mm
Dir  Spd
km/h
Gust
km/h
Spd
kts
Gust
kts
18/11:30pm 20.9 21.5 18.5 86 1.5 SSW 13 17 7 9 1017.5 1017.5 0.0
18/11:00pm 22.2 23.4 17.3 74 3.0 SE 7 13 4 7 1017.5 1017.5 0.0
18/10:30pm 22.1 23.0 17.5 75 2.8 SE 9 15 5 8 1017.6 1017.6 0.0
18/10:00pm 22.0 23.0 17.8 77 2.6 SE 9 13 5 7 1017.4 1017.4 0.0
18/09:30pm 22.0 23.5 18.0 78 2.5 SE 7 13 4 7 1017.3 1017.3 0.0
18/09:00pm 22.0 23.2 18.2 79 2.4 SE 9 15 5 8 1017.3 1017.3 0.0
18/08:30pm 22.1 23.4 18.5 80 2.3 ESE 9 17 5 9 1017.1 1017.1 0.0
18/08:00pm 21.9 22.8 18.3 80 2.2 ESE 11 17 6 9 1016.8 1016.8 0.0
18/07:30pm 21.9 23.0 18.1 79 2.4 ESE 9 13 5 7 1016.5 1016.5 0.0
18/07:00pm 21.8 22.7 17.6 77 2.6 SE 9 15 5 8 1016.1 1016.1 0.0
18/06:30pm 22.1 23.1 17.7 76 2.7 SSE 9 15 5 8 1015.9 1015.9 0.0
18/06:00pm 22.2 23.0 17.3 74 3.0 ESE 9 15 5 8 1015.6 1015.6 0.0
18/05:30pm 22.6 22.9 16.9 70 3.5 ESE 11 19 6 10 1015.4 1015.4 0.0
18/05:00pm 22.5 22.0 16.8 70 3.5 E 15 17 8 9 1015.2 1015.2 0.0
18/04:30pm 22.8 22.6 16.8 69 3.7 ESE 13 15 7 8 1015.1 1015.1 0.0
18/04:00pm 23.4 24.2 17.2 68 3.8 ESE 9 13 5 7 1015.0 1015.0 0.0
18/03:30pm 23.2 24.4 17.4 70 3.6 SSE 7 11 4 6 1014.9 1014.9 0.0
18/03:00pm 22.7 23.3 16.9 70 3.6 SSE 9 13 5 7 1014.9 1014.9 0.0
18/02:30pm 22.4 22.7 16.9 71 3.4 S 11 17 6 9 1015.1 1015.1 0.0
18/02:00pm 22.4 22.3 16.9 71 3.4 S 13 17 7 9 1015.4 1015.4 0.0
18/01:30pm 22.1 21.6 16.8 72 3.2 S 15 17 8 9 1015.8 1015.8 0.0
18/01:00pm 21.9 21.7 16.8 73 3.1 S 13 17 7 9 1016.2 1016.2 0.0
18/12:30pm 22.0 21.4 16.7 72 3.2 S 15 19 8 10 1016.8 1016.8 0.0
18/12:00pm 21.8 21.1 16.5 72 3.2 SSW 15 17 8 9 1017.4 1017.4 0.0
18/11:30am 21.9 21.2 16.4 71 3.3 S 15 17 8 9 1017.7 1017.7 0.0
18/11:00am 21.6 21.2 16.3 72 3.2 SSW 13 17 7 9 1018.1 1018.1 0.0
18/10:30am 21.3 20.7 16.7 75 2.8 SSW 15 19 8 10 1018.2 1018.2 0.0
18/10:00am 21.1 20.1 16.7 76 2.7 SSW 17 20 9 11 1018.4 1018.4 0.0
18/09:30am 20.9 20.1 17.1 79 2.3 SW 17 20 9 11 1018.4 1018.4 0.0
18/09:00am 20.9 20.1 17.1 79 2.3 SW 17 19 9 10 1018.2 1018.2 0.0
18/08:30am 20.4 19.3 16.4 78 2.4 SW 17 19 9 10 1018.0 1018.0 0.0
18/08:00am 19.9 19.5 17.1 84 1.7 SW 15 17 8 9 1017.6 1017.6 0.0
18/07:30am 19.8 19.5 17.4 86 1.5 WSW 15 19 8 10 1017.2 1017.2 0.0
18/07:00am 20.3 20.1 17.7 85 1.6 SW 15 17 8 9 1016.9 1016.9 0.0
18/06:30am 20.1 19.3 17.1 83 1.8 SW 17 19 9 10 1016.5 1016.5 0.0
18/06:00am 20.3 20.1 17.5 84 1.7 SW 15 17 8 9 1016.3 1016.3 0.0
18/05:30am 20.2 - - - - SW 15 17 8 9 1016.1 1016.1 0.0
18/05:00am 20.6 - - - - SW 17 20 9 11 1016.1 1016.1 0.0
18/04:30am 20.1 - - - - SW 15 19 8 10 1016.0 1016.0 0.0
18/04:00am 19.8 - - - - SW 17 20 9 11 1016.0 1016.0 0.0
18/03:30am 20.0 - - - - WSW 15 17 8 9 1016.1 1016.1 0.0
18/03:00am 19.9 - - - - SW 19 20 10 11 1016.1 1016.1 0.0
18/02:30am 20.0 - - - - SW 22 26 12 14 1016.3 1016.3 0.0
18/02:00am 20.8 - - - - SW 17 20 9 11 1016.3 1016.3 0.0
18/01:30am 20.6 - - - - SW 13 15 7 8 1016.5 1016.5 0.0
18/01:00am 21.0 - - - - SW 11 13 6 7 1016.7 1016.7 0.0
18/12:30am 21.5 - - - - SW 7 9 4 5 1016.8 1016.8 0.0
18/12:00am 21.4 24.0 20.4 94 0.6 WSW 7 9 4 5 1016.8 1016.8 0.0
 
Date/Time
EST
Temp
°C
App
Temp
°C
Dew
Point
°C
Rel
Hum
%
Delta-T
°C
Wind Press
QNH
hPa
Press
MSL
hPa
Rain since
9am
mm
Dir  Spd
km/h
Gust
km/h
Spd
kts
Gust
kts
17/11:30pm 21.4 23.2 19.5 89 1.2 WSW 9 9 5 5 1017.1 1017.1 0.0
17/11:00pm 22.2 24.7 19.9 87 1.5 SW 6 7 3 4 1017.2 1017.2 0.0
17/10:30pm 21.9 23.7 19.6 87 1.5 SSW 9 13 5 7 1017.4 1017.4 0.0
17/10:00pm 22.2 25.5 19.2 83 1.9 CALM 0 0 0 0 1017.3 1017.3 0.0
17/09:30pm 22.1 25.3 18.9 82 2.0 CALM 0 0 0 0 1017.2 1017.2 0.0
17/09:00pm 22.5 24.9 19.7 84 1.8 NNW 6 9 3 5 1017.0 1017.0 0.0
17/08:30pm 22.5 24.8 19.9 85 1.7 N 7 11 4 6 1016.7 1016.7 0.0
17/08:00pm 22.6 23.6 19.4 82 2.0 N 13 15 7 8 1016.4 1016.4 0.0
17/07:30pm 22.7 23.4 19.7 83 1.9 N 15 17 8 9 1016.0 1016.0 0.0
17/07:00pm 22.8 24.2 19.6 82 2.0 N 11 13 6 7 1015.7 1015.7 0.0
17/06:30pm 22.7 23.6 19.3 81 2.2 N 13 17 7 9 1015.4 1015.4 0.0
17/06:00pm 22.7 23.1 19.1 80 2.3 NNE 15 17 8 9 1015.1 1015.1 0.0
17/05:30pm 22.9 23.7 19.1 79 2.4 NNE 13 17 7 9 1014.9 1014.9 0.0
17/05:00pm 22.9 23.3 18.9 78 2.5 NE 15 17 8 9 1014.6 1014.6 0.0
17/04:30pm 23.0 23.4 19.0 78 2.5 NE 15 17 8 9 1014.5 1014.5 0.0
17/04:00pm 22.9 23.6 18.9 78 2.5 NE 13 15 7 8 1014.2 1014.2 0.0
17/03:30pm 22.9 23.3 18.9 78 2.5 NE 15 17 8 9 1014.3 1014.3 0.0
17/03:00pm 24.0 25.5 18.9 73 3.2 E 9 13 5 7 1014.3 1014.3 0.0
17/02:30pm 24.2 25.5 18.4 70 3.7 ESE 9 11 5 6 1014.5 1014.5 0.0
17/02:00pm 24.1 26.1 18.7 72 3.4 S 6 9 3 5 1014.8 1014.8 0.0
17/01:30pm 23.8 26.4 19.3 76 2.9 S 4 7 2 4 1015.2 1015.2 0.0
17/01:00pm 23.1 25.3 19.1 78 2.5 S 6 9 3 5 1015.6 1015.6 0.0
17/12:30pm 22.5 22.9 19.1 81 2.2 S 15 17 8 9 1016.2 1016.2 0.0
17/12:00pm 22.3 22.6 18.7 80 2.3 S 15 19 8 10 1016.6 1016.6 0.0
17/11:30am 22.5 21.7 18.1 76 2.7 S 19 20 10 11 1017.0 1017.0 0.0
17/11:00am 22.6 21.5 17.7 74 3.0 S 20 20 11 11 1017.2 1017.2 0.0
17/10:30am 22.4 21.5 17.8 75 2.9 SSW 19 24 10 13 1017.5 1017.5 0.0
17/10:00am 22.2 21.8 18.0 77 2.6 SSW 17 22 9 12 1017.8 1017.8 0.0
17/09:30am 22.1 21.7 18.9 82 2.0 SW 19 20 10 11 1017.8 1017.8 0.0
17/09:00am 21.9 - - - - SW 17 19 9 10 1017.7 1017.7 0.0
17/08:30am 21.6 - - - - SW 15 17 8 9 1017.6 1017.6 0.0
17/08:00am 21.4 - - - - SW 17 20 9 11 1017.4 1017.4 0.0
17/07:30am 21.3 - - - - SW 15 17 8 9 1017.1 1017.1 0.0
17/07:00am 21.3 - - - - WSW 17 19 9 10 1016.8 1016.8 0.0
17/06:30am 21.2 - - - - WSW 17 19 9 10 1016.5 1016.5 0.0
17/06:00am 21.5 - - - - SW 15 17 8 9 1016.4 1016.4 0.0
17/05:30am 21.5 - - - - SW 17 19 9 10 1016.1 1016.1 0.0
17/05:00am 21.4 - - - - SW 19 20 10 11 1015.9 1015.9 0.0
17/04:30am 21.4 - - - - SW 15 17 8 9 1015.8 1015.8 0.0
17/04:00am 21.5 - - - - SW 17 17 9 9 1015.7 1015.7 0.0
17/03:30am 21.4 - - - - SW 15 17 8 9 1015.7 1015.7 0.0
17/03:00am 21.4 - - - - SW 15 17 8 9 1015.6 1015.6 0.0
17/02:30am 21.4 - - - - SW 17 19 9 10 1015.7 1015.7 0.0
17/02:00am 21.4 - - - - WSW 15 17 8 9 1016.0 1016.0 0.0
17/01:30am 21.5 - - - - SW 15 17 8 9 1016.3 1016.3 0.0
17/01:00am 21.5 - - - - WSW 17 19 9 10 1016.4 1016.4 0.0
17/12:30am 22.0 - - - - WSW 13 15 7 8 1016.7 1016.7 0.0
17/12:00am 22.3 - - - - SSW 11 13 6 7 1016.9 1016.9 0.0
 
Date/Time
EST
Temp
°C
App
Temp
°C
Dew
Point
°C
Rel
Hum
%
Delta-T
°C
Wind Press
QNH
hPa
Press
MSL
hPa
Rain since
9am
mm
Dir  Spd
km/h
Gust
km/h
Spd
kts
Gust
kts
16/11:30pm 22.2 - - - - SSW 13 15 7 8 1016.9 1016.9 0.0
16/11:00pm 22.3 - - - - SSW 15 17 8 9 1017.1 1017.1 0.0
16/10:30pm 22.7 24.0 20.2 86 1.6 S 13 15 7 8 1017.2 1017.2 0.0
16/10:00pm 22.8 26.2 20.1 85 1.7 SSE 2 7 1 4 1017.2 1017.2 0.0
16/09:30pm 22.8 25.4 20.0 84 1.8 SE 6 11 3 6 1017.4 1017.4 0.0
16/09:00pm 23.0 24.3 20.1 84 1.9 ESE 13 17 7 9 1017.4 1017.4 0.0
16/08:30pm 23.0 25.1 20.1 84 1.9 ESE 9 15 5 8 1017.3 1017.3 0.0
16/08:00pm 23.0 24.7 20.1 84 1.9 ESE 11 17 6 9 1017.1 1017.1 0.0
16/07:30pm 23.1 24.8 20.2 84 1.9 ESE 11 17 6 9 1016.9 1016.9 0.0
16/07:00pm 23.1 23.7 20.2 84 1.9 E 17 20 9 11 1016.4 1016.4 0.0

Other formats

Comma delimited format used in spreadsheet applications
http://www.bom.gov.au/fwo/IDQ60801/IDQ60801.94295.axf

JavaScript Object Notation format (JSON) in row-major order
http://www.bom.gov.au/fwo/IDQ60801/IDQ60801.94295.json

Data quality

Most of these data are generated automatically and are frequently updated. Quality checks on data are not normally performed. It is possible for incorrect values to appear. Refer to information at About Latest Weather Observations and please check the disclaimer before using these data.